createdAt,value
2023-11-28T00:00:01.881Z,977.45
2023-11-28T00:01:01.933Z,977.43
2023-11-28T00:02:02.223Z,977.50
2023-11-28T00:03:02.274Z,977.43
2023-11-28T00:04:02.250Z,977.51
2023-11-28T00:05:02.265Z,977.52
2023-11-28T00:06:02.344Z,977.50
2023-11-28T00:07:02.415Z,977.52
2023-11-28T00:08:02.552Z,977.55
2023-11-28T00:09:02.558Z,977.55
2023-11-28T00:10:02.648Z,977.57
2023-11-28T00:11:02.739Z,977.61
2023-11-28T00:12:02.815Z,977.59
2023-11-28T00:13:02.859Z,977.56
2023-11-28T00:14:03.003Z,977.66
2023-11-28T00:15:03.024Z,977.69
2023-11-28T00:16:06.003Z,977.71
2023-11-28T00:17:03.201Z,977.71
2023-11-28T00:18:03.416Z,977.75
2023-11-28T00:19:03.440Z,977.73
2023-11-28T00:20:03.449Z,977.80
2023-11-28T00:21:03.478Z,977.78
2023-11-28T00:22:03.569Z,977.85
2023-11-28T00:23:03.667Z,977.88
2023-11-28T00:24:03.753Z,977.89
2023-11-28T00:25:03.803Z,977.92
2023-11-28T00:26:03.922Z,977.89
2023-11-28T00:27:03.996Z,977.97
2023-11-28T00:28:04.068Z,977.99
2023-11-28T00:29:04.207Z,978.04
2023-11-28T00:30:04.241Z,978.06
2023-11-28T00:31:04.360Z,978.01
2023-11-28T00:32:04.411Z,978.03
2023-11-28T00:33:04.488Z,978.04
2023-11-28T00:34:04.545Z,978.05
2023-11-28T00:35:04.683Z,978.07
2023-11-28T00:36:04.733Z,978.10
2023-11-28T00:37:04.805Z,978.15
2023-11-28T00:38:04.877Z,978.20
2023-11-28T00:39:04.956Z,978.20
2023-11-28T00:40:05.049Z,978.24
2023-11-28T00:41:05.149Z,978.29
2023-11-28T00:42:05.240Z,978.27
2023-11-28T00:43:05.266Z,978.29
2023-11-28T00:44:05.392Z,978.26
2023-11-28T00:45:05.448Z,978.34
2023-11-28T00:46:05.526Z,978.30
2023-11-28T00:47:05.704Z,978.29
2023-11-28T00:48:05.817Z,978.33
2023-11-28T00:49:05.790Z,978.34
2023-11-28T00:50:05.949Z,978.38
2023-11-28T00:51:05.960Z,978.37
2023-11-28T00:52:06.053Z,978.43
2023-11-28T00:53:06.313Z,978.45
2023-11-28T00:54:06.214Z,978.44
2023-11-28T00:55:06.302Z,978.47
2023-11-28T00:56:06.416Z,978.50
2023-11-28T00:57:06.465Z,978.48
2023-11-28T00:58:06.539Z,978.55
2023-11-28T00:59:06.659Z,978.55
2023-11-28T01:00:06.690Z,978.54
2023-11-28T01:01:06.773Z,978.56
2023-11-28T01:02:06.985Z,978.59
2023-11-28T01:03:07.076Z,978.61
2023-11-28T01:04:07.050Z,978.60
2023-11-28T01:05:07.084Z,978.59
2023-11-28T01:06:07.158Z,978.63
2023-11-28T01:07:07.264Z,978.64
2023-11-28T01:08:07.354Z,978.66
2023-11-28T01:09:07.367Z,978.70
2023-11-28T01:10:07.459Z,978.71
2023-11-28T01:11:07.541Z,978.70
2023-11-28T01:12:07.631Z,978.71
2023-11-28T01:13:07.697Z,978.72
2023-11-28T01:14:07.815Z,978.77
2023-11-28T01:15:07.846Z,978.79
2023-11-28T01:16:07.984Z,978.80
2023-11-28T01:17:08.123Z,978.86
2023-11-28T01:18:08.190Z,978.86
2023-11-28T01:19:08.174Z,978.86
2023-11-28T01:20:08.264Z,978.90
2023-11-28T01:21:08.313Z,978.91
2023-11-28T01:22:08.433Z,978.94
2023-11-28T01:23:08.499Z,978.98
2023-11-28T01:24:08.580Z,979.01
2023-11-28T01:25:08.672Z,979.01
2023-11-28T01:26:08.771Z,979.05
2023-11-28T01:27:08.855Z,979.07
2023-11-28T01:28:08.928Z,979.10
2023-11-28T01:29:08.977Z,979.10
2023-11-28T01:30:09.078Z,979.18
2023-11-28T01:31:09.153Z,979.15
2023-11-28T01:32:09.324Z,979.22
2023-11-28T01:33:09.312Z,979.22
2023-11-28T01:34:16.942Z,979.23
2023-11-28T01:35:09.592Z,979.24
2023-11-28T01:36:09.549Z,979.23
2023-11-28T01:37:09.645Z,979.29
2023-11-28T01:38:09.732Z,979.30
2023-11-28T01:39:09.782Z,979.32
2023-11-28T01:40:09.894Z,979.32
2023-11-28T01:41:09.955Z,979.34
2023-11-28T01:42:10.078Z,979.36
2023-11-28T01:43:10.128Z,979.39
2023-11-28T01:44:10.310Z,979.40
2023-11-28T01:45:10.455Z,979.41
2023-11-28T01:46:10.391Z,979.43
2023-11-28T01:47:10.467Z,979.47
2023-11-28T01:48:10.543Z,979.46
2023-11-28T01:49:10.675Z,979.52
2023-11-28T01:50:10.768Z,979.55
2023-11-28T01:51:10.806Z,979.58
2023-11-28T01:52:10.925Z,979.64
2023-11-28T01:53:11.060Z,979.65
2023-11-28T01:54:11.065Z,979.69
2023-11-28T01:55:11.130Z,979.70
2023-11-28T01:56:11.190Z,979.72
2023-11-28T01:57:11.323Z,979.72
2023-11-28T01:58:11.368Z,979.76
2023-11-28T01:59:11.492Z,979.81
2023-11-28T02:00:11.562Z,979.81
2023-11-28T02:01:11.647Z,979.84
2023-11-28T02:02:11.843Z,979.86
2023-11-28T02:03:11.985Z,979.89
2023-11-28T02:04:12.075Z,979.93
2023-11-28T02:05:12.044Z,979.93
2023-11-28T02:06:12.125Z,979.93
2023-11-28T02:07:12.209Z,979.96
2023-11-28T02:08:12.276Z,979.99
2023-11-28T02:09:12.368Z,980.02
2023-11-28T02:10:12.481Z,980.05
2023-11-28T02:11:12.535Z,980.02
2023-11-28T02:12:12.610Z,980.04
2023-11-28T02:13:12.688Z,980.08
2023-11-28T02:14:12.811Z,980.09
2023-11-28T02:15:12.915Z,980.10
2023-11-28T02:16:13.014Z,980.11
2023-11-28T02:17:13.086Z,980.14
2023-11-28T02:18:13.132Z,980.14
2023-11-28T02:19:13.207Z,980.19
2023-11-28T02:20:13.276Z,980.19
2023-11-28T02:21:13.372Z,980.20
2023-11-28T02:22:13.501Z,980.23
2023-11-28T02:23:13.589Z,980.19
2023-11-28T02:24:13.644Z,980.22
2023-11-28T02:25:13.710Z,980.25
2023-11-28T02:26:13.807Z,980.26
2023-11-28T02:27:13.888Z,980.32
2023-11-28T02:28:13.951Z,980.34
2023-11-28T02:29:14.031Z,980.33
2023-11-28T02:30:14.094Z,980.38
2023-11-28T02:31:14.200Z,980.27
2023-11-28T02:32:14.374Z,980.41
2023-11-28T02:33:14.353Z,980.42
2023-11-28T02:34:14.421Z,980.46
2023-11-28T02:35:20.930Z,980.46
2023-11-28T02:36:14.568Z,980.48
2023-11-28T02:37:14.635Z,980.57
2023-11-28T02:38:14.712Z,980.58
2023-11-28T02:39:14.788Z,980.59
2023-11-28T02:40:14.865Z,980.58
2023-11-28T02:41:14.955Z,980.61
2023-11-28T02:42:15.041Z,980.64
2023-11-28T02:43:15.128Z,980.62
2023-11-28T02:44:15.207Z,980.64
2023-11-28T02:45:15.298Z,980.60
2023-11-28T02:46:15.365Z,980.67
2023-11-28T02:47:15.476Z,980.64
2023-11-28T02:48:15.513Z,980.73
2023-11-28T02:49:15.666Z,980.73
2023-11-28T02:50:15.790Z,980.72
2023-11-28T02:51:15.782Z,980.72
2023-11-28T02:52:15.903Z,980.75
2023-11-28T02:53:15.949Z,980.76
2023-11-28T02:54:16.050Z,980.75
2023-11-28T02:55:16.125Z,980.77
2023-11-28T02:56:16.229Z,980.77
2023-11-28T02:57:16.333Z,980.81
2023-11-28T02:58:16.416Z,980.83
2023-11-28T02:59:16.510Z,980.80
2023-11-28T03:00:16.588Z,980.88
2023-11-28T03:01:16.739Z,980.86
2023-11-28T03:02:16.873Z,980.89
2023-11-28T03:03:16.972Z,980.97
2023-11-28T03:04:17.051Z,980.94
2023-11-28T03:05:17.053Z,980.98
2023-11-28T03:06:17.117Z,981.00
2023-11-28T03:07:17.498Z,981.07
2023-11-28T03:08:17.277Z,981.04
2023-11-28T03:09:17.391Z,981.09
2023-11-28T03:10:17.426Z,981.12
2023-11-28T03:11:17.488Z,981.08
2023-11-28T03:12:17.572Z,981.12
2023-11-28T03:13:17.642Z,981.20
2023-11-28T03:14:17.710Z,981.24
2023-11-28T03:15:17.787Z,981.21
2023-11-28T03:16:17.887Z,981.30
2023-11-28T03:17:17.973Z,981.22
2023-11-28T03:18:18.003Z,981.31
2023-11-28T03:19:18.062Z,981.24
2023-11-28T03:20:18.135Z,981.29
2023-11-28T03:21:18.214Z,981.33
2023-11-28T03:22:18.306Z,981.33
2023-11-28T03:23:18.352Z,981.35
2023-11-28T03:24:18.429Z,981.38
2023-11-28T03:25:18.489Z,981.41
2023-11-28T03:26:18.586Z,981.38
2023-11-28T03:27:18.684Z,981.38
2023-11-28T03:28:18.734Z,981.43
2023-11-28T03:29:18.823Z,981.46
2023-11-28T03:30:18.889Z,981.41
2023-11-28T03:31:18.987Z,981.49
2023-11-28T03:32:19.134Z,981.53
2023-11-28T03:33:19.192Z,981.52
2023-11-28T03:34:19.253Z,981.51
2023-11-28T03:35:19.327Z,981.58
2023-11-28T03:36:19.375Z,981.61
2023-11-28T03:37:19.499Z,981.65
2023-11-28T03:38:19.542Z,981.64
2023-11-28T03:39:19.669Z,981.63
2023-11-28T03:40:19.746Z,981.76
2023-11-28T03:41:19.829Z,981.73
2023-11-28T03:42:19.949Z,981.81
2023-11-28T03:43:20.030Z,981.87
2023-11-28T03:44:20.059Z,981.77
2023-11-28T03:45:20.128Z,981.83
2023-11-28T03:46:20.273Z,981.93
2023-11-28T03:47:20.352Z,981.91
2023-11-28T03:48:20.377Z,981.94
2023-11-28T03:49:20.464Z,981.98
2023-11-28T03:50:20.551Z,981.96
2023-11-28T03:51:20.650Z,982.11
2023-11-28T03:52:20.751Z,982.12
2023-11-28T03:53:20.853Z,982.12
2023-11-28T03:54:20.930Z,982.08
2023-11-28T03:55:20.987Z,982.14
2023-11-28T03:56:21.076Z,982.09
2023-11-28T03:57:21.199Z,982.11
2023-11-28T03:58:21.253Z,982.18
2023-11-28T03:59:21.351Z,982.16
2023-11-28T04:00:21.434Z,982.18
2023-11-28T04:01:21.545Z,982.19
2023-11-28T04:02:21.794Z,982.23
2023-11-28T04:03:21.812Z,982.22
2023-11-28T04:04:21.814Z,982.22
2023-11-28T04:05:21.902Z,982.24
2023-11-28T04:06:21.960Z,982.27
2023-11-28T04:07:22.048Z,982.20
2023-11-28T04:08:22.109Z,982.33
2023-11-28T04:09:22.198Z,982.35
2023-11-28T04:10:22.287Z,982.33
2023-11-28T04:11:22.370Z,982.33
2023-11-28T04:12:22.469Z,982.35
2023-11-28T04:13:22.559Z,982.37
2023-11-28T04:14:22.651Z,982.42
2023-11-28T04:15:22.739Z,982.42
2023-11-28T04:16:22.817Z,982.46
2023-11-28T04:17:22.942Z,982.45
2023-11-28T04:18:23.131Z,982.50
2023-11-28T04:19:23.074Z,982.50
2023-11-28T04:20:23.140Z,982.50
2023-11-28T04:21:23.228Z,982.56
2023-11-28T04:22:23.342Z,982.61
2023-11-28T04:23:23.375Z,982.65
2023-11-28T04:24:23.471Z,982.65
2023-11-28T04:25:23.560Z,982.65
2023-11-28T04:26:23.655Z,982.72
2023-11-28T04:27:23.740Z,982.81
2023-11-28T04:28:23.839Z,982.84
2023-11-28T04:29:23.917Z,982.81
2023-11-28T04:30:23.999Z,982.83
2023-11-28T04:31:24.144Z,982.89
2023-11-28T04:32:24.258Z,982.88
2023-11-28T04:33:24.293Z,982.96
2023-11-28T04:34:24.318Z,982.92
2023-11-28T04:35:24.401Z,982.93
2023-11-28T04:36:24.484Z,982.90
2023-11-28T04:37:24.584Z,983.01
2023-11-28T04:38:24.627Z,983.08
2023-11-28T04:39:24.721Z,983.05
2023-11-28T04:40:24.785Z,983.07
2023-11-28T04:41:24.867Z,983.11
2023-11-28T04:42:25.022Z,983.15
2023-11-28T04:43:25.051Z,983.19
2023-11-28T04:44:25.123Z,983.16
2023-11-28T04:45:25.197Z,983.18
2023-11-28T04:46:25.320Z,983.20
2023-11-28T04:47:25.401Z,983.21
2023-11-28T04:48:25.411Z,983.22
2023-11-28T04:49:25.498Z,983.27
2023-11-28T04:50:25.604Z,983.29
2023-11-28T04:51:25.675Z,983.33
2023-11-28T04:52:25.786Z,983.37
2023-11-28T04:53:25.939Z,983.37
2023-11-28T04:54:25.908Z,983.34
2023-11-28T04:55:26.002Z,983.34
2023-11-28T04:56:26.070Z,983.40
2023-11-28T04:57:26.186Z,983.38
2023-11-28T04:58:26.250Z,983.38
2023-11-28T04:59:26.331Z,983.43
2023-11-28T05:00:26.411Z,983.46
2023-11-28T05:01:26.509Z,983.48
2023-11-28T05:02:26.720Z,983.46
2023-11-28T05:03:26.747Z,983.54
2023-11-28T05:04:26.752Z,983.55
2023-11-28T05:05:26.807Z,983.55
2023-11-28T05:06:26.870Z,983.58
2023-11-28T05:07:26.967Z,983.67
2023-11-28T05:08:27.030Z,983.66
2023-11-28T05:09:27.114Z,983.69
2023-11-28T05:10:27.194Z,983.63
2023-11-28T05:11:27.291Z,983.74
2023-11-28T05:12:27.383Z,983.73
2023-11-28T05:13:27.432Z,983.74
2023-11-28T05:14:27.511Z,983.79
2023-11-28T05:15:27.611Z,983.79
2023-11-28T05:16:30.034Z,983.84
2023-11-28T05:17:27.880Z,983.82
2023-11-28T05:18:27.944Z,983.84
2023-11-28T05:19:27.928Z,983.86
2023-11-28T05:20:28.016Z,983.91
2023-11-28T05:21:28.116Z,983.99
2023-11-28T05:22:28.188Z,983.93
2023-11-28T05:23:28.279Z,983.97
2023-11-28T05:24:28.342Z,984.01
2023-11-28T05:25:28.430Z,984.03
2023-11-28T05:26:28.501Z,984.03
2023-11-28T05:27:28.595Z,984.10
2023-11-28T05:28:28.641Z,984.16
2023-11-28T05:29:28.738Z,984.16
2023-11-28T05:30:28.803Z,984.18
2023-11-28T05:31:28.927Z,984.21
2023-11-28T05:32:29.052Z,984.22
2023-11-28T05:33:29.117Z,984.23
2023-11-28T05:34:29.183Z,984.23
2023-11-28T05:35:29.262Z,984.26
2023-11-28T05:36:29.326Z,984.27
2023-11-28T05:37:29.431Z,984.26
2023-11-28T05:38:29.472Z,984.29
2023-11-28T05:39:29.560Z,984.23
2023-11-28T05:40:29.655Z,984.38
2023-11-28T05:41:29.744Z,984.33
2023-11-28T05:42:29.840Z,984.35
2023-11-28T05:43:29.919Z,984.38
2023-11-28T05:44:29.992Z,984.44
2023-11-28T05:45:30.084Z,984.48
2023-11-28T05:46:30.185Z,984.48
2023-11-28T05:47:30.549Z,984.46
2023-11-28T05:48:30.470Z,984.53
2023-11-28T05:49:30.443Z,984.49
2023-11-28T05:50:30.517Z,984.54
2023-11-28T05:51:30.604Z,984.57
2023-11-28T05:52:30.700Z,984.54
2023-11-28T05:53:30.785Z,984.65
2023-11-28T05:54:30.884Z,984.65
2023-11-28T05:55:30.978Z,984.59
2023-11-28T05:56:31.028Z,984.63
2023-11-28T05:57:31.156Z,984.67
2023-11-28T05:58:31.230Z,984.69
2023-11-28T05:59:31.295Z,984.76
2023-11-28T06:00:31.385Z,984.76
2023-11-28T06:01:31.494Z,984.73
2023-11-28T06:02:31.636Z,984.79
2023-11-28T06:03:31.798Z,984.78
2023-11-28T06:04:31.879Z,984.79
2023-11-28T06:05:31.855Z,984.73
2023-11-28T06:06:31.943Z,984.82
2023-11-28T06:07:32.129Z,984.83
2023-11-28T06:08:32.083Z,984.84
2023-11-28T06:09:32.184Z,984.86
2023-11-28T06:10:34.058Z,984.87
2023-11-28T06:11:32.362Z,984.88
2023-11-28T06:12:32.465Z,984.95
2023-11-28T06:13:32.583Z,984.99
2023-11-28T06:14:32.608Z,985.03
2023-11-28T06:15:32.704Z,985.06
2023-11-28T06:16:32.803Z,985.06
2023-11-28T06:17:32.950Z,985.12
2023-11-28T06:18:32.955Z,985.16
2023-11-28T06:19:33.034Z,985.17
2023-11-28T06:20:33.084Z,985.19
2023-11-28T06:21:33.166Z,985.29
2023-11-28T06:22:33.469Z,985.29
2023-11-28T06:23:33.335Z,985.28
2023-11-28T06:24:33.428Z,985.36
2023-11-28T06:25:33.667Z,985.39
2023-11-28T06:26:33.586Z,985.48
2023-11-28T06:27:33.683Z,985.41
2023-11-28T06:28:33.729Z,985.49
2023-11-28T06:29:33.814Z,985.53
2023-11-28T06:30:33.938Z,985.55
2023-11-28T06:31:34.099Z,985.53
2023-11-28T06:32:37.505Z,985.59
2023-11-28T06:33:34.142Z,985.64
2023-11-28T06:34:34.337Z,985.67
2023-11-28T06:35:34.544Z,985.67
2023-11-28T06:36:34.377Z,985.73
2023-11-28T06:37:34.504Z,985.72
2023-11-28T06:38:34.537Z,985.73
2023-11-28T06:39:34.608Z,985.81
2023-11-28T06:40:34.715Z,985.83
2023-11-28T06:41:34.764Z,985.86
2023-11-28T06:42:34.869Z,985.89
2023-11-28T06:43:34.965Z,985.86
2023-11-28T06:44:35.022Z,985.92
2023-11-28T06:45:35.101Z,985.98
2023-11-28T06:46:35.198Z,985.96
2023-11-28T06:47:35.336Z,985.97
2023-11-28T06:48:35.424Z,986.01
2023-11-28T06:49:35.503Z,986.05
2023-11-28T06:50:35.552Z,986.08
2023-11-28T06:51:35.648Z,985.97
2023-11-28T06:52:35.714Z,986.08
2023-11-28T06:53:35.778Z,986.08
2023-11-28T06:54:35.842Z,986.15
2023-11-28T06:55:35.986Z,986.20
2023-11-28T06:56:36.054Z,986.17
2023-11-28T06:57:36.155Z,986.24
2023-11-28T06:58:36.240Z,986.26
2023-11-28T06:59:36.328Z,986.30
2023-11-28T07:00:36.402Z,986.31
2023-11-28T07:01:36.614Z,986.36
2023-11-28T07:02:36.637Z,986.30
2023-11-28T07:03:36.656Z,986.43
2023-11-28T07:04:36.733Z,986.42
2023-11-28T07:05:36.787Z,986.42
2023-11-28T07:06:36.879Z,986.46
2023-11-28T07:07:37.222Z,986.47
2023-11-28T07:08:37.036Z,986.48
2023-11-28T07:09:37.113Z,986.56
2023-11-28T07:10:37.206Z,986.56
2023-11-28T07:11:37.256Z,986.56
2023-11-28T07:12:37.350Z,986.61
2023-11-28T07:13:37.436Z,986.64
2023-11-28T07:14:37.493Z,986.58
2023-11-28T07:15:37.665Z,986.66
2023-11-28T07:16:37.813Z,986.72
2023-11-28T07:17:37.824Z,986.69
2023-11-28T07:18:38.074Z,986.71
2023-11-28T07:19:37.955Z,986.75
2023-11-28T07:20:37.995Z,986.77
2023-11-28T07:21:38.078Z,986.81
2023-11-28T07:22:38.185Z,986.76
2023-11-28T07:23:38.226Z,986.79
2023-11-28T07:24:38.322Z,986.78
2023-11-28T07:25:38.415Z,986.81
2023-11-28T07:26:38.481Z,986.87
2023-11-28T07:27:38.605Z,986.86
2023-11-28T07:28:38.719Z,986.89
2023-11-28T07:29:38.789Z,986.91
2023-11-28T07:30:38.848Z,986.93
2023-11-28T07:31:38.970Z,986.89
2023-11-28T07:32:39.223Z,986.98
2023-11-28T07:33:39.186Z,986.95
2023-11-28T07:34:39.301Z,986.93
2023-11-28T07:35:39.304Z,986.91
2023-11-28T07:36:39.353Z,987.06
2023-11-28T07:37:39.488Z,987.03
2023-11-28T07:38:39.516Z,987.06
2023-11-28T07:39:39.629Z,987.15
2023-11-28T07:40:39.713Z,987.13
2023-11-28T07:41:39.753Z,987.18
2023-11-28T07:42:39.842Z,987.25
2023-11-28T07:43:40.027Z,987.23
2023-11-28T07:44:39.974Z,987.31
2023-11-28T07:45:40.081Z,987.30
2023-11-28T07:46:40.220Z,987.33
2023-11-28T07:47:40.248Z,987.36
2023-11-28T07:48:40.316Z,987.41
2023-11-28T07:49:40.397Z,987.46
2023-11-28T07:50:40.460Z,987.47
2023-11-28T07:51:40.534Z,987.50
2023-11-28T07:52:40.664Z,987.55
2023-11-28T07:53:40.687Z,987.58
2023-11-28T07:54:40.780Z,987.62
2023-11-28T07:55:40.847Z,987.59
2023-11-28T07:56:40.934Z,987.63
2023-11-28T07:57:41.025Z,987.63
2023-11-28T07:58:41.125Z,987.65
2023-11-28T07:59:41.203Z,987.68
2023-11-28T08:00:41.324Z,987.71
2023-11-28T08:01:41.484Z,987.73
2023-11-28T08:02:41.556Z,987.72
2023-11-28T08:03:41.600Z,987.74
2023-11-28T08:04:41.721Z,987.78
2023-11-28T08:05:41.719Z,987.74
2023-11-28T08:06:41.784Z,987.74
2023-11-28T08:07:41.909Z,987.80
2023-11-28T08:08:41.939Z,987.84
2023-11-28T08:09:42.017Z,987.89
2023-11-28T08:10:42.169Z,987.88
2023-11-28T08:11:42.186Z,987.89
2023-11-28T08:12:42.259Z,987.92
2023-11-28T08:13:42.409Z,987.89
2023-11-28T08:14:42.418Z,987.96
2023-11-28T08:15:42.505Z,987.97
2023-11-28T08:16:42.731Z,987.94
2023-11-28T08:17:42.824Z,987.98
2023-11-28T08:18:43.564Z,987.97
2023-11-28T08:19:42.828Z,987.99
2023-11-28T08:20:42.905Z,987.98
2023-11-28T08:21:42.984Z,987.99
2023-11-28T08:22:43.098Z,988.02
2023-11-28T08:23:43.112Z,988.02
2023-11-28T08:24:45.185Z,988.04
2023-11-28T08:25:43.271Z,988.03
2023-11-28T08:26:43.336Z,988.11
2023-11-28T08:27:43.430Z,988.11
2023-11-28T08:28:43.596Z,988.13
2023-11-28T08:29:43.618Z,988.17
2023-11-28T08:30:43.690Z,988.21
2023-11-28T08:31:43.994Z,988.19
2023-11-28T08:32:43.953Z,988.22
2023-11-28T08:33:43.985Z,988.22
2023-11-28T08:34:44.028Z,988.22
2023-11-28T08:35:44.050Z,988.24
2023-11-28T08:36:44.132Z,988.24
2023-11-28T08:37:44.267Z,988.32
2023-11-28T08:38:44.281Z,988.28
2023-11-28T08:39:44.371Z,988.34
2023-11-28T08:40:44.546Z,988.35
2023-11-28T08:41:44.542Z,988.38
2023-11-28T08:42:44.613Z,988.42
2023-11-28T08:43:44.682Z,988.45
2023-11-28T08:44:44.747Z,988.46
2023-11-28T08:45:44.868Z,988.56
2023-11-28T08:46:45.033Z,988.56
2023-11-28T08:47:45.074Z,988.58
2023-11-28T08:48:45.082Z,988.51
2023-11-28T08:49:45.243Z,988.58
2023-11-28T08:50:45.233Z,988.58
2023-11-28T08:51:45.301Z,988.63
2023-11-28T08:52:45.421Z,988.66
2023-11-28T08:53:45.462Z,988.68
2023-11-28T08:54:45.539Z,988.74
2023-11-28T08:55:45.676Z,988.74
2023-11-28T08:56:45.702Z,988.72
2023-11-28T08:57:45.810Z,988.75
2023-11-28T08:58:45.882Z,988.69
2023-11-28T08:59:45.957Z,988.76
2023-11-28T09:00:46.030Z,988.80
2023-11-28T09:01:46.240Z,988.85
2023-11-28T09:02:46.268Z,988.86
2023-11-28T09:03:46.480Z,988.87
2023-11-28T09:04:46.356Z,988.93
2023-11-28T09:05:46.405Z,988.89
2023-11-28T09:06:46.527Z,988.94
2023-11-28T09:07:46.619Z,988.92
2023-11-28T09:08:48.199Z,988.96
2023-11-28T09:09:46.726Z,988.93
2023-11-28T09:10:46.930Z,988.90
2023-11-28T09:11:46.908Z,988.98
2023-11-28T09:12:47.019Z,989.05
2023-11-28T09:13:47.066Z,989.14
2023-11-28T09:14:53.936Z,989.07
2023-11-28T09:15:47.726Z,989.12
2023-11-28T09:16:47.347Z,989.18
2023-11-28T09:17:47.444Z,989.11
2023-11-28T09:18:51.268Z,989.17
2023-11-28T09:19:47.571Z,989.25
2023-11-28T09:20:47.619Z,989.22
2023-11-28T09:21:47.685Z,989.28
2023-11-28T09:22:47.788Z,989.31
2023-11-28T09:23:47.805Z,989.36
2023-11-28T09:24:47.882Z,989.41
2023-11-28T09:25:53.116Z,989.41
2023-11-28T09:26:48.101Z,989.44
2023-11-28T09:27:48.156Z,989.51
2023-11-28T09:28:48.298Z,989.54
2023-11-28T09:29:48.310Z,989.50
2023-11-28T09:30:48.440Z,989.54
2023-11-28T09:31:48.522Z,989.53
2023-11-28T09:32:48.763Z,989.57
2023-11-28T09:33:48.669Z,989.61
2023-11-28T09:34:48.802Z,989.57
2023-11-28T09:35:48.862Z,989.55
2023-11-28T09:36:48.913Z,989.54
2023-11-28T09:37:49.036Z,989.55
2023-11-28T09:38:49.064Z,989.59
2023-11-28T09:39:49.130Z,989.58
2023-11-28T09:40:49.309Z,989.59
2023-11-28T09:41:49.651Z,989.61
2023-11-28T09:42:49.390Z,989.69
2023-11-28T09:43:49.520Z,989.68
2023-11-28T09:44:49.538Z,989.70
2023-11-28T09:45:49.692Z,989.67
2023-11-28T09:46:49.800Z,989.68
2023-11-28T09:47:50.089Z,989.73
2023-11-28T09:48:49.833Z,989.72
2023-11-28T09:49:49.915Z,989.73
2023-11-28T09:50:49.978Z,989.71
2023-11-28T09:51:50.192Z,989.75
2023-11-28T09:52:50.501Z,989.72
2023-11-28T09:53:50.171Z,989.75
2023-11-28T09:54:50.347Z,989.79
2023-11-28T09:55:50.420Z,989.81
2023-11-28T09:56:50.447Z,989.79
2023-11-28T09:57:50.794Z,989.83
2023-11-28T09:58:50.622Z,989.84
2023-11-28T09:59:51.660Z,989.82
2023-11-28T10:00:50.782Z,989.80
2023-11-28T10:01:51.027Z,989.81
2023-11-28T10:02:51.125Z,989.79
2023-11-28T10:03:51.105Z,989.84
2023-11-28T10:04:51.167Z,989.91
2023-11-28T10:05:51.216Z,989.88
2023-11-28T10:06:51.313Z,989.93
2023-11-28T10:07:51.601Z,989.94
2023-11-28T10:08:51.475Z,990.01
2023-11-28T10:09:51.578Z,989.98
2023-11-28T10:10:51.643Z,990.08
2023-11-28T10:11:51.730Z,990.06
2023-11-28T10:12:52.028Z,990.07
2023-11-28T10:13:51.874Z,990.09
2023-11-28T10:14:51.957Z,990.07
2023-11-28T10:15:52.041Z,990.12
2023-11-28T10:16:52.233Z,990.14
2023-11-28T10:17:52.295Z,990.09
2023-11-28T10:18:52.267Z,990.16
2023-11-28T10:19:52.400Z,990.18
2023-11-28T10:20:52.467Z,990.21
2023-11-28T10:21:52.524Z,990.20
2023-11-28T10:22:52.680Z,990.24
2023-11-28T10:23:52.688Z,990.21
2023-11-28T10:24:52.752Z,990.26
2023-11-28T10:25:52.913Z,990.23
2023-11-28T10:26:52.935Z,990.24
2023-11-28T10:27:53.066Z,990.23
2023-11-28T10:28:53.068Z,990.22
2023-11-28T10:29:53.142Z,990.21
2023-11-28T10:30:54.373Z,990.24
2023-11-28T10:31:53.367Z,990.21
2023-11-28T10:32:53.446Z,990.19
2023-11-28T10:33:53.491Z,990.19
2023-11-28T10:34:53.674Z,990.21
2023-11-28T10:35:53.673Z,990.22
2023-11-28T10:36:53.774Z,990.26
2023-11-28T10:37:53.879Z,990.21
2023-11-28T10:38:53.910Z,990.24
2023-11-28T10:39:54.005Z,990.24
2023-11-28T10:40:54.357Z,990.31
2023-11-28T10:41:54.174Z,990.33
2023-11-28T10:42:54.258Z,990.31
2023-11-28T10:43:54.380Z,990.34
2023-11-28T10:44:54.402Z,990.34
2023-11-28T10:45:54.493Z,990.37
2023-11-28T10:46:54.644Z,990.39
2023-11-28T10:47:54.781Z,990.42
2023-11-28T10:48:54.757Z,990.43
2023-11-28T10:49:54.888Z,990.45
2023-11-28T10:50:54.936Z,990.41
2023-11-28T10:51:55.020Z,990.38
2023-11-28T10:52:55.174Z,990.47
2023-11-28T10:53:55.186Z,990.47
2023-11-28T10:54:55.258Z,990.47
2023-11-28T10:55:55.373Z,990.41
2023-11-28T10:56:55.427Z,990.43
2023-11-28T10:57:56.026Z,990.44
2023-11-28T10:58:55.666Z,990.42
2023-11-28T10:59:55.664Z,990.45
2023-11-28T11:00:55.777Z,990.45
2023-11-28T11:01:55.846Z,990.41
2023-11-28T11:02:55.967Z,990.46
2023-11-28T11:03:55.978Z,990.41
2023-11-28T11:04:56.062Z,990.40
2023-11-28T11:05:56.121Z,990.45
2023-11-28T11:06:56.206Z,990.50
2023-11-28T11:07:56.286Z,990.51
2023-11-28T11:08:56.393Z,990.51
2023-11-28T11:09:56.445Z,990.52
2023-11-28T11:10:56.548Z,990.54
2023-11-28T11:11:56.583Z,990.54
2023-11-28T11:12:56.678Z,990.56
2023-11-28T11:13:56.789Z,990.61
2023-11-28T11:14:56.857Z,990.54
2023-11-28T11:15:56.939Z,990.60
2023-11-28T11:16:57.035Z,990.59
2023-11-28T11:17:57.174Z,990.62
2023-11-28T11:18:57.156Z,990.67
2023-11-28T11:19:57.257Z,990.66
2023-11-28T11:20:57.319Z,990.68
2023-11-28T11:21:57.491Z,990.65
2023-11-28T11:22:57.528Z,990.67
2023-11-28T11:23:57.561Z,990.74
2023-11-28T11:24:57.649Z,990.77
2023-11-28T11:25:57.735Z,990.78
2023-11-28T11:26:57.796Z,990.84
2023-11-28T11:27:57.940Z,990.78
2023-11-28T11:28:58.025Z,990.83
2023-11-28T11:29:58.050Z,990.83
2023-11-28T11:30:58.133Z,990.80
2023-11-28T11:31:58.218Z,990.80
2023-11-28T11:32:58.303Z,990.81
2023-11-28T11:33:58.422Z,990.78
2023-11-28T11:34:58.473Z,990.78
2023-11-28T11:35:58.548Z,990.81
2023-11-28T11:36:58.617Z,990.82
2023-11-28T11:37:58.758Z,990.78
2023-11-28T11:38:58.772Z,990.80
2023-11-28T11:39:58.865Z,990.90
2023-11-28T11:40:58.966Z,990.91
2023-11-28T11:41:59.000Z,990.88
2023-11-28T11:42:59.095Z,990.89
2023-11-28T11:43:59.184Z,990.90
2023-11-28T11:44:59.218Z,990.91
2023-11-28T11:45:59.307Z,990.92
2023-11-28T11:46:59.378Z,990.94
2023-11-28T11:47:59.525Z,990.94
2023-11-28T11:48:59.604Z,990.92
2023-11-28T11:49:59.632Z,990.92
2023-11-28T11:50:59.694Z,990.93
2023-11-28T11:51:59.736Z,990.90
2023-11-28T11:52:59.864Z,990.92
2023-11-28T11:53:59.892Z,990.94
2023-11-28T11:54:59.973Z,990.99
2023-11-28T11:56:00.072Z,990.96
2023-11-28T11:57:00.171Z,990.94
2023-11-28T11:58:01.572Z,990.98
2023-11-28T11:59:00.344Z,990.93
2023-11-28T12:00:00.398Z,990.94
2023-11-28T12:01:00.493Z,990.94
2023-11-28T12:02:00.660Z,990.90
2023-11-28T12:03:00.772Z,990.95
2023-11-28T12:04:00.775Z,990.95
2023-11-28T12:05:03.072Z,990.93
2023-11-28T12:06:01.388Z,990.93
2023-11-28T12:07:00.943Z,990.96
2023-11-28T12:08:01.063Z,990.95
2023-11-28T12:09:01.144Z,990.98
2023-11-28T12:10:01.209Z,990.98
2023-11-28T12:11:02.477Z,990.99
2023-11-28T12:12:01.382Z,991.02
2023-11-28T12:13:01.489Z,991.04
2023-11-28T12:14:01.544Z,990.98
2023-11-28T12:15:01.622Z,990.97
2023-11-28T12:16:01.729Z,990.97
2023-11-28T12:17:01.829Z,990.98
2023-11-28T12:18:01.999Z,991.03
2023-11-28T12:19:01.905Z,991.09
2023-11-28T12:20:02.084Z,991.05
2023-11-28T12:21:02.131Z,991.10
2023-11-28T12:22:02.173Z,991.09
2023-11-28T12:23:02.297Z,991.06
2023-11-28T12:24:02.335Z,991.11
2023-11-28T12:25:02.406Z,991.09
2023-11-28T12:26:02.506Z,991.07
2023-11-28T12:27:02.542Z,991.10
2023-11-28T12:28:02.634Z,991.09
2023-11-28T12:29:02.719Z,991.17